sensor_id;sensor_type;location;lat;lon;timestamp;P1;durP1;ratioP1;P2;durP2;ratioP2
76761;SDS011;65705;51.032;13.790;2023-05-16T00:01:38;8.73;;;5.22;;
76761;SDS011;65705;51.032;13.790;2023-05-16T00:04:04;8.43;;;4.93;;
76761;SDS011;65705;51.032;13.790;2023-05-16T00:06:30;8.13;;;4.45;;
76761;SDS011;65705;51.032;13.790;2023-05-16T00:08:56;8.98;;;5.13;;
76761;SDS011;65705;51.032;13.790;2023-05-16T00:11:22;10.13;;;5.18;;
76761;SDS011;65705;51.032;13.790;2023-05-16T00:13:47;10.25;;;5.07;;
76761;SDS011;65705;51.032;13.790;2023-05-16T00:16:13;8.10;;;5.50;;
76761;SDS011;65705;51.032;13.790;2023-05-16T00:18:39;9.80;;;4.82;;
76761;SDS011;65705;51.032;13.790;2023-05-16T00:21:05;9.50;;;4.85;;
76761;SDS011;65705;51.032;13.790;2023-05-16T00:23:31;9.60;;;5.75;;
76761;SDS011;65705;51.032;13.790;2023-05-16T00:25:57;10.30;;;5.28;;
76761;SDS011;65705;51.032;13.790;2023-05-16T00:28:22;7.93;;;5.05;;
76761;SDS011;65705;51.032;13.790;2023-05-16T00:30:48;8.75;;;5.40;;
76761;SDS011;65705;51.032;13.790;2023-05-16T00:33:14;13.68;;;5.10;;
76761;SDS011;65705;51.032;13.790;2023-05-16T00:35:40;9.05;;;5.65;;
76761;SDS011;65705;51.032;13.790;2023-05-16T00:38:06;12.32;;;5.75;;
76761;SDS011;65705;51.032;13.790;2023-05-16T00:40:32;8.38;;;5.82;;
76761;SDS011;65705;51.032;13.790;2023-05-16T00:42:57;7.78;;;5.65;;
76761;SDS011;65705;51.032;13.790;2023-05-16T00:45:27;8.93;;;5.28;;
76761;SDS011;65705;51.032;13.790;2023-05-16T00:47:52;7.65;;;4.80;;
76761;SDS011;65705;51.032;13.790;2023-05-16T00:50:18;9.48;;;5.78;;
76761;SDS011;65705;51.032;13.790;2023-05-16T00:52:44;8.95;;;5.30;;
76761;SDS011;65705;51.032;13.790;2023-05-16T00:55:10;8.75;;;5.53;;
76761;SDS011;65705;51.032;13.790;2023-05-16T00:57:37;7.35;;;5.38;;
76761;SDS011;65705;51.032;13.790;2023-05-16T01:00:04;9.88;;;5.35;;
76761;SDS011;65705;51.032;13.790;2023-05-16T01:02:31;10.90;;;5.93;;
76761;SDS011;65705;51.032;13.790;2023-05-16T01:04:58;9.88;;;5.65;;
76761;SDS011;65705;51.032;13.790;2023-05-16T01:07:25;9.32;;;5.78;;
76761;SDS011;65705;51.032;13.790;2023-05-16T01:09:51;8.57;;;5.03;;
76761;SDS011;65705;51.032;13.790;2023-05-16T01:12:20;11.65;;;6.10;;
76761;SDS011;65705;51.032;13.790;2023-05-16T01:20:29;10.38;;;5.55;;
76761;SDS011;65705;51.032;13.790;2023-05-16T01:25:55;11.30;;;5.93;;
76761;SDS011;65705;51.032;13.790;2023-05-16T01:28:39;10.65;;;5.70;;
76761;SDS011;65705;51.032;13.790;2023-05-16T01:31:06;8.82;;;5.68;;
76761;SDS011;65705;51.032;13.790;2023-05-16T01:33:31;10.38;;;5.93;;
76761;SDS011;65705;51.032;13.790;2023-05-16T01:38:40;9.57;;;5.70;;
76761;SDS011;65705;51.032;13.790;2023-05-16T01:41:24;12.95;;;6.28;;
76761;SDS011;65705;51.032;13.790;2023-05-16T01:43:58;11.65;;;6.40;;
76761;SDS011;65705;51.032;13.790;2023-05-16T01:46:30;8.82;;;5.35;;
76761;SDS011;65705;51.032;13.790;2023-05-16T01:52:15;8.40;;;5.80;;
76761;SDS011;65705;51.032;13.790;2023-05-16T01:55:03;11.00;;;6.38;;
76761;SDS011;65705;51.032;13.790;2023-05-16T01:57:30;10.50;;;6.00;;
76761;SDS011;65705;51.032;13.790;2023-05-16T01:59:57;8.93;;;5.88;;
76761;SDS011;65705;51.032;13.790;2023-05-16T02:02:23;8.20;;;5.68;;
76761;SDS011;65705;51.032;13.790;2023-05-16T02:04:49;10.02;;;6.15;;
76761;SDS011;65705;51.032;13.790;2023-05-16T02:07:15;11.68;;;6.50;;
76761;SDS011;65705;51.032;13.790;2023-05-16T02:09:43;12.25;;;6.47;;
76761;SDS011;65705;51.032;13.790;2023-05-16T02:12:09;11.13;;;6.60;;
76761;SDS011;65705;51.032;13.790;2023-05-16T02:14:35;12.07;;;6.63;;
76761;SDS011;65705;51.032;13.790;2023-05-16T02:17:00;9.40;;;6.57;;
76761;SDS011;65705;51.032;13.790;2023-05-16T02:19:26;10.55;;;6.78;;
76761;SDS011;65705;51.032;13.790;2023-05-16T02:21:52;11.60;;;6.60;;
76761;SDS011;65705;51.032;13.790;2023-05-16T02:24:18;10.75;;;7.25;;
76761;SDS011;65705;51.032;13.790;2023-05-16T02:26:43;12.32;;;6.55;;
76761;SDS011;65705;51.032;13.790;2023-05-16T02:29:09;9.82;;;6.60;;
76761;SDS011;65705;51.032;13.790;2023-05-16T02:31:35;11.20;;;7.00;;
76761;SDS011;65705;51.032;13.790;2023-05-16T02:34:01;11.48;;;6.60;;
76761;SDS011;65705;51.032;13.790;2023-05-16T02:36:27;11.73;;;6.25;;
76761;SDS011;65705;51.032;13.790;2023-05-16T02:38:53;8.88;;;6.55;;
76761;SDS011;65705;51.032;13.790;2023-05-16T02:41:21;11.05;;;6.78;;
76761;SDS011;65705;51.032;13.790;2023-05-16T02:43:47;11.07;;;6.85;;
76761;SDS011;65705;51.032;13.790;2023-05-16T02:46:20;10.43;;;6.80;;
76761;SDS011;65705;51.032;13.790;2023-05-16T02:49:04;9.75;;;6.47;;
76761;SDS011;65705;51.032;13.790;2023-05-16T02:51:30;9.82;;;6.50;;
76761;SDS011;65705;51.032;13.790;2023-05-16T02:53:56;9.75;;;6.47;;
76761;SDS011;65705;51.032;13.790;2023-05-16T02:56:24;10.95;;;7.30;;
76761;SDS011;65705;51.032;13.790;2023-05-16T02:58:52;12.07;;;6.93;;
76761;SDS011;65705;51.032;13.790;2023-05-16T03:01:18;11.63;;;7.63;;
76761;SDS011;65705;51.032;13.790;2023-05-16T03:03:44;16.80;;;7.88;;
76761;SDS011;65705;51.032;13.790;2023-05-16T03:06:10;11.52;;;7.18;;
76761;SDS011;65705;51.032;13.790;2023-05-16T03:08:36;13.50;;;7.43;;
76761;SDS011;65705;51.032;13.790;2023-05-16T03:11:02;12.35;;;7.60;;
76761;SDS011;65705;51.032;13.790;2023-05-16T03:13:28;11.10;;;7.78;;
76761;SDS011;65705;51.032;13.790;2023-05-16T03:15:57;11.95;;;8.05;;
76761;SDS011;65705;51.032;13.790;2023-05-16T03:18:23;14.48;;;7.35;;
76761;SDS011;65705;51.032;13.790;2023-05-16T03:20:49;10.68;;;7.63;;
76761;SDS011;65705;51.032;13.790;2023-05-16T03:23:18;10.93;;;7.65;;
76761;SDS011;65705;51.032;13.790;2023-05-16T03:25:46;12.73;;;7.50;;
76761;SDS011;65705;51.032;13.790;2023-05-16T03:28:12;12.70;;;8.65;;
76761;SDS011;65705;51.032;13.790;2023-05-16T03:30:38;13.02;;;7.50;;
76761;SDS011;65705;51.032;13.790;2023-05-16T03:33:04;12.13;;;7.47;;
76761;SDS011;65705;51.032;13.790;2023-05-16T03:35:30;15.90;;;8.02;;
76761;SDS011;65705;51.032;13.790;2023-05-16T03:37:57;12.30;;;8.02;;
76761;SDS011;65705;51.032;13.790;2023-05-16T03:40:23;13.43;;;8.02;;
76761;SDS011;65705;51.032;13.790;2023-05-16T03:42:48;14.95;;;8.35;;
76761;SDS011;65705;51.032;13.790;2023-05-16T03:45:14;13.07;;;7.90;;
76761;SDS011;65705;51.032;13.790;2023-05-16T03:47:40;15.85;;;7.80;;
76761;SDS011;65705;51.032;13.790;2023-05-16T03:50:06;12.65;;;8.13;;
76761;SDS011;65705;51.032;13.790;2023-05-16T03:52:32;14.48;;;7.47;;
76761;SDS011;65705;51.032;13.790;2023-05-16T03:54:59;14.85;;;8.07;;
76761;SDS011;65705;51.032;13.790;2023-05-16T03:57:26;12.77;;;7.95;;
76761;SDS011;65705;51.032;13.790;2023-05-16T03:59:51;14.10;;;7.55;;
76761;SDS011;65705;51.032;13.790;2023-05-16T04:02:17;13.25;;;8.13;;
76761;SDS011;65705;51.032;13.790;2023-05-16T04:04:43;13.45;;;7.68;;
76761;SDS011;65705;51.032;13.790;2023-05-16T04:07:10;12.93;;;8.15;;
76761;SDS011;65705;51.032;13.790;2023-05-16T04:09:36;14.02;;;8.50;;
76761;SDS011;65705;51.032;13.790;2023-05-16T04:12:01;14.43;;;8.85;;
76761;SDS011;65705;51.032;13.790;2023-05-16T04:14:27;14.15;;;7.68;;
76761;SDS011;65705;51.032;13.790;2023-05-16T04:16:53;11.32;;;7.90;;
76761;SDS011;65705;51.032;13.790;2023-05-16T04:19:18;13.73;;;8.32;;
76761;SDS011;65705;51.032;13.790;2023-05-16T04:21:44;16.13;;;8.95;;
76761;SDS011;65705;51.032;13.790;2023-05-16T04:24:10;13.57;;;7.82;;
76761;SDS011;65705;51.032;13.790;2023-05-16T04:26:35;16.00;;;8.68;;
76761;SDS011;65705;51.032;13.790;2023-05-16T04:29:01;13.27;;;8.43;;
76761;SDS011;65705;51.032;13.790;2023-05-16T04:31:27;11.73;;;8.30;;
76761;SDS011;65705;51.032;13.790;2023-05-16T04:33:53;13.68;;;8.25;;
76761;SDS011;65705;51.032;13.790;2023-05-16T04:36:20;12.73;;;8.40;;
76761;SDS011;65705;51.032;13.790;2023-05-16T04:38:46;13.98;;;8.68;;
76761;SDS011;65705;51.032;13.790;2023-05-16T04:41:12;13.68;;;7.78;;
76761;SDS011;65705;51.032;13.790;2023-05-16T04:43:38;15.30;;;8.45;;
76761;SDS011;65705;51.032;13.790;2023-05-16T04:46:05;12.10;;;8.10;;
76761;SDS011;65705;51.032;13.790;2023-05-16T04:48:32;11.07;;;8.25;;
76761;SDS011;65705;51.032;13.790;2023-05-16T04:50:58;14.40;;;9.45;;
76761;SDS011;65705;51.032;13.790;2023-05-16T04:53:24;12.35;;;8.55;;
76761;SDS011;65705;51.032;13.790;2023-05-16T04:55:50;14.98;;;9.07;;
76761;SDS011;65705;51.032;13.790;2023-05-16T04:58:16;13.40;;;8.70;;
76761;SDS011;65705;51.032;13.790;2023-05-16T05:00:41;15.60;;;8.70;;
76761;SDS011;65705;51.032;13.790;2023-05-16T05:03:07;17.58;;;9.45;;
76761;SDS011;65705;51.032;13.790;2023-05-16T05:05:33;14.48;;;8.77;;
76761;SDS011;65705;51.032;13.790;2023-05-16T05:07:59;16.05;;;9.23;;
76761;SDS011;65705;51.032;13.790;2023-05-16T05:10:25;12.70;;;8.48;;
76761;SDS011;65705;51.032;13.790;2023-05-16T05:12:55;17.67;;;8.98;;
76761;SDS011;65705;51.032;13.790;2023-05-16T05:15:22;17.67;;;9.50;;
76761;SDS011;65705;51.032;13.790;2023-05-16T05:17:48;14.75;;;9.15;;
76761;SDS011;65705;51.032;13.790;2023-05-16T05:20:13;15.65;;;9.60;;
76761;SDS011;65705;51.032;13.790;2023-05-16T05:22:39;18.58;;;11.18;;
76761;SDS011;65705;51.032;13.790;2023-05-16T05:25:05;14.88;;;10.85;;
76761;SDS011;65705;51.032;13.790;2023-05-16T05:27:31;19.38;;;10.07;;
76761;SDS011;65705;51.032;13.790;2023-05-16T05:29:57;14.57;;;9.57;;
76761;SDS011;65705;51.032;13.790;2023-05-16T05:32:22;15.98;;;10.63;;
76761;SDS011;65705;51.032;13.790;2023-05-16T05:34:48;14.75;;;9.77;;
76761;SDS011;65705;51.032;13.790;2023-05-16T05:37:14;20.17;;;11.57;;
76761;SDS011;65705;51.032;13.790;2023-05-16T05:39:40;19.38;;;11.30;;
76761;SDS011;65705;51.032;13.790;2023-05-16T05:42:06;20.30;;;11.45;;
76761;SDS011;65705;51.032;13.790;2023-05-16T05:44:31;17.05;;;10.68;;
76761;SDS011;65705;51.032;13.790;2023-05-16T05:46:57;16.73;;;11.75;;
76761;SDS011;65705;51.032;13.790;2023-05-16T05:49:24;17.83;;;11.25;;
76761;SDS011;65705;51.032;13.790;2023-05-16T05:51:53;16.75;;;11.57;;
76761;SDS011;65705;51.032;13.790;2023-05-16T05:54:19;20.45;;;13.32;;
76761;SDS011;65705;51.032;13.790;2023-05-16T05:56:45;22.10;;;12.43;;
76761;SDS011;65705;51.032;13.790;2023-05-16T05:59:11;21.40;;;13.20;;
76761;SDS011;65705;51.032;13.790;2023-05-16T06:01:37;19.75;;;13.23;;
76761;SDS011;65705;51.032;13.790;2023-05-16T06:04:04;22.77;;;13.52;;
76761;SDS011;65705;51.032;13.790;2023-05-16T06:06:30;18.15;;;12.68;;
76761;SDS011;65705;51.032;13.790;2023-05-16T06:08:56;20.77;;;14.07;;
76761;SDS011;65705;51.032;13.790;2023-05-16T06:11:23;21.58;;;13.15;;
76761;SDS011;65705;51.032;13.790;2023-05-16T06:13:50;22.45;;;13.40;;
76761;SDS011;65705;51.032;13.790;2023-05-16T06:16:16;23.95;;;13.27;;
76761;SDS011;65705;51.032;13.790;2023-05-16T06:18:42;18.17;;;12.10;;
76761;SDS011;65705;51.032;13.790;2023-05-16T06:21:08;19.90;;;12.98;;
76761;SDS011;65705;51.032;13.790;2023-05-16T06:23:34;23.88;;;14.20;;
76761;SDS011;65705;51.032;13.790;2023-05-16T06:26:00;26.20;;;14.35;;
76761;SDS011;65705;51.032;13.790;2023-05-16T06:28:27;22.35;;;14.27;;
76761;SDS011;65705;51.032;13.790;2023-05-16T06:30:53;29.40;;;15.40;;
76761;SDS011;65705;51.032;13.790;2023-05-16T06:33:19;30.45;;;15.90;;
76761;SDS011;65705;51.032;13.790;2023-05-16T06:35:45;23.90;;;15.73;;
76761;SDS011;65705;51.032;13.790;2023-05-16T06:38:13;27.25;;;16.90;;
76761;SDS011;65705;51.032;13.790;2023-05-16T06:40:39;30.98;;;19.15;;
76761;SDS011;65705;51.032;13.790;2023-05-16T06:43:05;38.20;;;20.30;;
76761;SDS011;65705;51.032;13.790;2023-05-16T06:45:31;34.20;;;19.27;;
76761;SDS011;65705;51.032;13.790;2023-05-16T06:47:57;30.67;;;19.23;;
76761;SDS011;65705;51.032;13.790;2023-05-16T06:50:23;34.58;;;20.67;;
76761;SDS011;65705;51.032;13.790;2023-05-16T06:52:49;30.58;;;19.52;;
76761;SDS011;65705;51.032;13.790;2023-05-16T06:55:14;33.25;;;20.30;;
76761;SDS011;65705;51.032;13.790;2023-05-16T06:57:41;35.00;;;20.70;;
76761;SDS011;65705;51.032;13.790;2023-05-16T07:00:06;31.52;;;19.45;;
76761;SDS011;65705;51.032;13.790;2023-05-16T07:02:33;31.58;;;19.67;;
76761;SDS011;65705;51.032;13.790;2023-05-16T07:04:58;34.33;;;20.27;;
76761;SDS011;65705;51.032;13.790;2023-05-16T07:07:24;32.17;;;20.70;;
76761;SDS011;65705;51.032;13.790;2023-05-16T07:09:50;34.38;;;20.45;;
76761;SDS011;65705;51.032;13.790;2023-05-16T07:12:16;35.50;;;21.05;;
76761;SDS011;65705;51.032;13.790;2023-05-16T07:14:41;27.73;;;18.88;;
76761;SDS011;65705;51.032;13.790;2023-05-16T07:17:08;37.08;;;19.90;;
76761;SDS011;65705;51.032;13.790;2023-05-16T07:19:34;30.33;;;18.60;;
76761;SDS011;65705;51.032;13.790;2023-05-16T07:22:00;33.65;;;18.63;;
76761;SDS011;65705;51.032;13.790;2023-05-16T07:24:26;28.05;;;17.08;;
76761;SDS011;65705;51.032;13.790;2023-05-16T07:26:52;24.33;;;13.75;;
76761;SDS011;65705;51.032;13.790;2023-05-16T07:29:18;21.67;;;12.82;;
76761;SDS011;65705;51.032;13.790;2023-05-16T07:31:43;18.77;;;12.65;;
76761;SDS011;65705;51.032;13.790;2023-05-16T07:34:09;19.08;;;12.23;;
76761;SDS011;65705;51.032;13.790;2023-05-16T07:36:36;21.63;;;12.65;;
76761;SDS011;65705;51.032;13.790;2023-05-16T07:39:02;23.65;;;12.48;;
76761;SDS011;65705;51.032;13.790;2023-05-16T07:41:29;20.15;;;12.63;;
76761;SDS011;65705;51.032;13.790;2023-05-16T07:43:55;19.35;;;12.50;;
76761;SDS011;65705;51.032;13.790;2023-05-16T07:46:21;16.67;;;11.00;;
76761;SDS011;65705;51.032;13.790;2023-05-16T07:48:47;17.65;;;10.95;;
76761;SDS011;65705;51.032;13.790;2023-05-16T07:51:12;16.10;;;11.05;;
76761;SDS011;65705;51.032;13.790;2023-05-16T07:53:38;21.13;;;11.02;;
76761;SDS011;65705;51.032;13.790;2023-05-16T07:56:04;20.15;;;11.52;;
76761;SDS011;65705;51.032;13.790;2023-05-16T07:58:31;19.15;;;11.40;;
76761;SDS011;65705;51.032;13.790;2023-05-16T08:00:57;17.40;;;11.25;;
76761;SDS011;65705;51.032;13.790;2023-05-16T08:03:23;20.20;;;10.65;;
76761;SDS011;65705;51.032;13.790;2023-05-16T08:05:48;18.92;;;11.10;;
76761;SDS011;65705;51.032;13.790;2023-05-16T08:08:14;19.50;;;11.10;;
76761;SDS011;65705;51.032;13.790;2023-05-16T08:10:40;18.38;;;10.90;;
76761;SDS011;65705;51.032;13.790;2023-05-16T08:13:06;17.35;;;10.85;;
76761;SDS011;65705;51.032;13.790;2023-05-16T08:15:31;19.38;;;10.48;;
76761;SDS011;65705;51.032;13.790;2023-05-16T08:17:57;17.05;;;10.00;;
76761;SDS011;65705;51.032;13.790;2023-05-16T08:20:24;20.58;;;10.70;;
76761;SDS011;65705;51.032;13.790;2023-05-16T08:22:50;15.07;;;9.90;;
76761;SDS011;65705;51.032;13.790;2023-05-16T08:25:16;15.57;;;10.07;;
76761;SDS011;65705;51.032;13.790;2023-05-16T08:27:48;17.83;;;9.95;;
76761;SDS011;65705;51.032;13.790;2023-05-16T08:30:15;14.05;;;7.80;;
76761;SDS011;65705;51.032;13.790;2023-05-16T08:32:41;21.73;;;8.88;;
76761;SDS011;65705;51.032;13.790;2023-05-16T08:35:07;17.83;;;8.95;;
76761;SDS011;65705;51.032;13.790;2023-05-16T08:37:34;12.48;;;8.65;;
76761;SDS011;65705;51.032;13.790;2023-05-16T08:40:00;18.23;;;7.95;;
76761;SDS011;65705;51.032;13.790;2023-05-16T08:42:26;16.52;;;8.77;;
76761;SDS011;65705;51.032;13.790;2023-05-16T08:44:51;18.95;;;8.77;;
76761;SDS011;65705;51.032;13.790;2023-05-16T08:47:18;14.73;;;8.10;;
76761;SDS011;65705;51.032;13.790;2023-05-16T08:49:50;12.63;;;7.72;;
76761;SDS011;65705;51.032;13.790;2023-05-16T08:52:17;13.13;;;7.72;;
76761;SDS011;65705;51.032;13.790;2023-05-16T08:54:45;17.17;;;8.40;;
76761;SDS011;65705;51.032;13.790;2023-05-16T08:57:14;13.13;;;8.15;;
76761;SDS011;65705;51.032;13.790;2023-05-16T08:59:41;13.88;;;7.78;;
76761;SDS011;65705;51.032;13.790;2023-05-16T09:02:07;13.23;;;7.80;;
76761;SDS011;65705;51.032;13.790;2023-05-16T09:04:33;13.38;;;7.57;;
76761;SDS011;65705;51.032;13.790;2023-05-16T09:07:01;15.32;;;8.23;;
76761;SDS011;65705;51.032;13.790;2023-05-16T09:09:27;13.13;;;7.93;;
76761;SDS011;65705;51.032;13.790;2023-05-16T09:11:54;13.82;;;8.52;;
76761;SDS011;65705;51.032;13.790;2023-05-16T09:14:20;14.35;;;8.05;;
76761;SDS011;65705;51.032;13.790;2023-05-16T09:17:01;13.93;;;7.57;;
76761;SDS011;65705;51.032;13.790;2023-05-16T09:19:38;24.75;;;12.15;;
76761;SDS011;65705;51.032;13.790;2023-05-16T09:22:06;14.52;;;7.45;;
76761;SDS011;65705;51.032;13.790;2023-05-16T09:24:39;14.35;;;7.22;;
76761;SDS011;65705;51.032;13.790;2023-05-16T09:27:12;12.95;;;6.70;;
76761;SDS011;65705;51.032;13.790;2023-05-16T09:29:42;14.55;;;7.95;;
76761;SDS011;65705;51.032;13.790;2023-05-16T09:32:09;20.45;;;6.65;;
76761;SDS011;65705;51.032;13.790;2023-05-16T09:34:38;12.85;;;6.75;;
76761;SDS011;65705;51.032;13.790;2023-05-16T09:37:08;12.30;;;7.13;;
76761;SDS011;65705;51.032;13.790;2023-05-16T09:39:35;16.00;;;7.70;;
76761;SDS011;65705;51.032;13.790;2023-05-16T09:42:01;14.25;;;7.45;;
76761;SDS011;65705;51.032;13.790;2023-05-16T09:44:27;13.13;;;7.07;;
76761;SDS011;65705;51.032;13.790;2023-05-16T09:46:53;15.40;;;7.82;;
76761;SDS011;65705;51.032;13.790;2023-05-16T09:49:19;10.73;;;7.25;;
76761;SDS011;65705;51.032;13.790;2023-05-16T09:51:45;15.35;;;7.95;;
76761;SDS011;65705;51.032;13.790;2023-05-16T09:54:11;14.40;;;7.82;;
76761;SDS011;65705;51.032;13.790;2023-05-16T09:56:49;14.10;;;7.30;;
76761;SDS011;65705;51.032;13.790;2023-05-16T09:59:15;12.52;;;6.93;;
76761;SDS011;65705;51.032;13.790;2023-05-16T10:01:41;13.00;;;6.60;;
76761;SDS011;65705;51.032;13.790;2023-05-16T10:04:08;11.65;;;6.60;;
76761;SDS011;65705;51.032;13.790;2023-05-16T10:09:05;11.88;;;6.05;;
76761;SDS011;65705;51.032;13.790;2023-05-16T10:11:32;11.93;;;6.57;;
76761;SDS011;65705;51.032;13.790;2023-05-16T10:13:58;15.70;;;7.90;;
76761;SDS011;65705;51.032;13.790;2023-05-16T10:16:24;12.38;;;6.68;;
76761;SDS011;65705;51.032;13.790;2023-05-16T10:18:51;12.55;;;6.47;;
76761;SDS011;65705;51.032;13.790;2023-05-16T10:21:17;17.95;;;6.63;;
76761;SDS011;65705;51.032;13.790;2023-05-16T10:23:47;14.07;;;5.80;;
76761;SDS011;65705;51.032;13.790;2023-05-16T10:26:15;10.70;;;6.35;;
76761;SDS011;65705;51.032;13.790;2023-05-16T10:28:41;15.73;;;6.88;;
76761;SDS011;65705;51.032;13.790;2023-05-16T10:31:08;13.05;;;7.55;;
76761;SDS011;65705;51.032;13.790;2023-05-16T10:33:35;13.93;;;6.88;;
76761;SDS011;65705;51.032;13.790;2023-05-16T10:36:01;9.55;;;6.00;;
76761;SDS011;65705;51.032;13.790;2023-05-16T10:38:29;11.65;;;5.72;;
76761;SDS011;65705;51.032;13.790;2023-05-16T10:40:56;16.40;;;6.45;;
76761;SDS011;65705;51.032;13.790;2023-05-16T10:43:26;12.45;;;6.47;;
76761;SDS011;65705;51.032;13.790;2023-05-16T10:45:53;16.60;;;7.60;;
76761;SDS011;65705;51.032;13.790;2023-05-16T10:48:27;16.95;;;7.40;;
76761;SDS011;65705;51.032;13.790;2023-05-16T10:50:53;9.98;;;6.47;;
76761;SDS011;65705;51.032;13.790;2023-05-16T10:53:20;10.10;;;6.05;;
76761;SDS011;65705;51.032;13.790;2023-05-16T11:06:26;9.05;;;5.80;;
76761;SDS011;65705;51.032;13.790;2023-05-16T11:11:44;9.48;;;5.40;;
76761;SDS011;65705;51.032;13.790;2023-05-16T11:14:22;14.00;;;4.90;;
76761;SDS011;65705;51.032;13.790;2023-05-16T11:16:50;9.07;;;4.60;;
76761;SDS011;65705;51.032;13.790;2023-05-16T11:22:30;11.32;;;4.35;;
76761;SDS011;65705;51.032;13.790;2023-05-16T11:25:01;9.98;;;4.13;;
76761;SDS011;65705;51.032;13.790;2023-05-16T11:27:33;9.82;;;4.75;;
76761;SDS011;65705;51.032;13.790;2023-05-16T11:30:03;8.40;;;4.28;;
76761;SDS011;65705;51.032;13.790;2023-05-16T11:32:42;8.20;;;4.03;;
76761;SDS011;65705;51.032;13.790;2023-05-16T11:35:12;10.00;;;4.00;;
76761;SDS011;65705;51.032;13.790;2023-05-16T11:37:39;10.65;;;4.18;;
76761;SDS011;65705;51.032;13.790;2023-05-16T11:40:06;10.73;;;4.10;;
76761;SDS011;65705;51.032;13.790;2023-05-16T11:42:38;7.40;;;3.85;;
76761;SDS011;65705;51.032;13.790;2023-05-16T11:45:09;8.30;;;4.13;;
76761;SDS011;65705;51.032;13.790;2023-05-16T11:47:39;11.57;;;3.70;;
76761;SDS011;65705;51.032;13.790;2023-05-16T11:50:10;9.55;;;3.50;;
76761;SDS011;65705;51.032;13.790;2023-05-16T11:52:38;6.07;;;3.45;;
76761;SDS011;65705;51.032;13.790;2023-05-16T11:55:04;6.70;;;3.70;;
76761;SDS011;65705;51.032;13.790;2023-05-16T11:57:31;7.45;;;4.05;;
76761;SDS011;65705;51.032;13.790;2023-05-16T12:00:01;7.63;;;3.60;;
76761;SDS011;65705;51.032;13.790;2023-05-16T12:02:38;6.43;;;3.35;;
76761;SDS011;65705;51.032;13.790;2023-05-16T12:05:09;7.50;;;3.40;;
76761;SDS011;65705;51.032;13.790;2023-05-16T12:07:36;7.03;;;3.45;;
76761;SDS011;65705;51.032;13.790;2023-05-16T12:10:08;9.40;;;3.55;;
76761;SDS011;65705;51.032;13.790;2023-05-16T12:12:36;7.75;;;3.50;;
76761;SDS011;65705;51.032;13.790;2023-05-16T12:15:04;8.73;;;3.72;;
76761;SDS011;65705;51.032;13.790;2023-05-16T12:17:35;5.63;;;3.08;;
76761;SDS011;65705;51.032;13.790;2023-05-16T12:22:30;7.38;;;3.65;;
76761;SDS011;65705;51.032;13.790;2023-05-16T12:27:54;9.20;;;3.90;;
76761;SDS011;65705;51.032;13.790;2023-05-16T12:30:22;5.53;;;3.40;;
76761;SDS011;65705;51.032;13.790;2023-05-16T12:32:54;7.07;;;3.25;;
76761;SDS011;65705;51.032;13.790;2023-05-16T12:35:23;9.50;;;3.45;;
76761;SDS011;65705;51.032;13.790;2023-05-16T12:37:50;6.55;;;3.25;;
76761;SDS011;65705;51.032;13.790;2023-05-16T12:40:17;9.43;;;3.70;;
76761;SDS011;65705;51.032;13.790;2023-05-16T12:42:49;6.32;;;3.65;;
76761;SDS011;65705;51.032;13.790;2023-05-16T12:45:18;6.78;;;3.28;;
76761;SDS011;65705;51.032;13.790;2023-05-16T12:47:44;4.30;;;2.85;;
76761;SDS011;65705;51.032;13.790;2023-05-16T12:50:11;6.20;;;2.83;;
76761;SDS011;65705;51.032;13.790;2023-05-16T12:52:48;4.50;;;3.05;;
76761;SDS011;65705;51.032;13.790;2023-05-16T12:55:18;6.38;;;3.13;;
76761;SDS011;65705;51.032;13.790;2023-05-16T13:00:12;5.97;;;2.70;;
76761;SDS011;65705;51.032;13.790;2023-05-16T13:02:39;5.15;;;3.08;;
76761;SDS011;65705;51.032;13.790;2023-05-16T13:05:05;9.25;;;3.30;;
76761;SDS011;65705;51.032;13.790;2023-05-16T13:07:35;7.07;;;3.20;;
76761;SDS011;65705;51.032;13.790;2023-05-16T13:10:01;4.97;;;2.45;;
76761;SDS011;65705;51.032;13.790;2023-05-16T13:12:28;6.25;;;2.97;;
76761;SDS011;65705;51.032;13.790;2023-05-16T13:14:54;7.63;;;3.20;;
76761;SDS011;65705;51.032;13.790;2023-05-16T13:17:20;9.50;;;3.10;;
76761;SDS011;65705;51.032;13.790;2023-05-16T13:19:48;6.45;;;3.10;;
76761;SDS011;65705;51.032;13.790;2023-05-16T13:22:14;5.47;;;3.50;;
76761;SDS011;65705;51.032;13.790;2023-05-16T13:24:40;6.05;;;2.58;;
76761;SDS011;65705;51.032;13.790;2023-05-16T13:27:06;6.03;;;2.88;;
76761;SDS011;65705;51.032;13.790;2023-05-16T13:29:31;6.30;;;2.42;;
76761;SDS011;65705;51.032;13.790;2023-05-16T13:31:57;4.78;;;2.53;;
76761;SDS011;65705;51.032;13.790;2023-05-16T13:34:23;5.30;;;2.75;;
76761;SDS011;65705;51.032;13.790;2023-05-16T13:36:49;6.57;;;2.60;;
76761;SDS011;65705;51.032;13.790;2023-05-16T13:39:15;7.15;;;2.83;;
76761;SDS011;65705;51.032;13.790;2023-05-16T13:41:41;6.25;;;2.60;;
76761;SDS011;65705;51.032;13.790;2023-05-16T13:44:07;6.40;;;2.30;;
76761;SDS011;65705;51.032;13.790;2023-05-16T13:46:32;4.93;;;2.53;;
76761;SDS011;65705;51.032;13.790;2023-05-16T13:48:58;4.80;;;2.50;;
76761;SDS011;65705;51.032;13.790;2023-05-16T13:51:24;5.30;;;2.40;;
76761;SDS011;65705;51.032;13.790;2023-05-16T13:53:50;5.13;;;2.60;;
76761;SDS011;65705;51.032;13.790;2023-05-16T13:56:16;4.95;;;2.60;;
76761;SDS011;65705;51.032;13.790;2023-05-16T13:58:42;6.20;;;2.42;;
76761;SDS011;65705;51.032;13.790;2023-05-16T14:01:08;4.75;;;2.50;;
76761;SDS011;65705;51.032;13.790;2023-05-16T14:03:33;6.85;;;2.33;;
76761;SDS011;65705;51.032;13.790;2023-05-16T14:06:01;8.15;;;2.60;;
76761;SDS011;65705;51.032;13.790;2023-05-16T14:08:27;5.65;;;2.50;;
76761;SDS011;65705;51.032;13.790;2023-05-16T14:10:53;5.10;;;2.45;;
76761;SDS011;65705;51.032;13.790;2023-05-16T14:13:19;4.85;;;2.17;;
76761;SDS011;65705;51.032;13.790;2023-05-16T14:15:45;8.35;;;2.45;;
76761;SDS011;65705;51.032;13.790;2023-05-16T14:18:11;5.45;;;2.10;;
76761;SDS011;65705;51.032;13.790;2023-05-16T14:20:37;5.85;;;2.05;;
76761;SDS011;65705;51.032;13.790;2023-05-16T14:23:03;5.70;;;2.10;;
76761;SDS011;65705;51.032;13.790;2023-05-16T14:25:29;5.20;;;2.38;;
76761;SDS011;65705;51.032;13.790;2023-05-16T14:27:54;5.68;;;2.78;;
76761;SDS011;65705;51.032;13.790;2023-05-16T14:30:20;7.93;;;2.10;;
76761;SDS011;65705;51.032;13.790;2023-05-16T14:32:46;7.10;;;2.00;;
76761;SDS011;65705;51.032;13.790;2023-05-16T14:35:12;5.93;;;1.83;;
76761;SDS011;65705;51.032;13.790;2023-05-16T14:37:38;7.18;;;2.13;;
76761;SDS011;65705;51.032;13.790;2023-05-16T14:40:04;3.80;;;1.55;;
76761;SDS011;65705;51.032;13.790;2023-05-16T14:42:31;3.30;;;1.75;;
76761;SDS011;65705;51.032;13.790;2023-05-16T14:44:56;6.50;;;1.88;;
76761;SDS011;65705;51.032;13.790;2023-05-16T14:47:22;4.85;;;1.90;;
76761;SDS011;65705;51.032;13.790;2023-05-16T14:49:48;7.38;;;2.17;;
76761;SDS011;65705;51.032;13.790;2023-05-16T14:52:14;6.50;;;2.40;;
76761;SDS011;65705;51.032;13.790;2023-05-16T14:54:39;6.85;;;2.15;;
76761;SDS011;65705;51.032;13.790;2023-05-16T14:57:05;10.48;;;2.97;;
76761;SDS011;65705;51.032;13.790;2023-05-16T14:59:31;7.85;;;1.90;;
76761;SDS011;65705;51.032;13.790;2023-05-16T15:01:57;4.68;;;1.70;;
76761;SDS011;65705;51.032;13.790;2023-05-16T15:04:23;10.68;;;1.95;;